< < Back
Terminal Aerodrome Forecast


Current Version              Previous Versions:   1  2  3  4  5  6  7  8  9  

Terminal Aerodrome Forecast

650
FTUS44 KBMX 251720
TAFBHM
TAF
KBHM 251720Z 2518/2618 11006KT P6SM VCSH BKN040
     FM260000 09003KT P6SM FEW250=

Latest METAR

981
SAUS70 KWBC 252100 RRF
MTRBHM
METAR KBHM 252053Z 03004KT 10SM FEW045 SCT120 34/22 A3010 RMK AO2
RAB08E27 SLP182 P0000 60000 T03390222 56024


USA.gov is the U.S. government's official web portal to all federal, state and local government web resources and services.